Main page
METAR-TAF:

METAR-TAF

Airports :

Kaunas Airport

Kaunas, Lithuania

latitude: 54-54N, longitude: 023-55-12E, elevation: 77 m

Current weather observation

The report was made 19 minutes ago, at 20:50 UTC
Wind 6 kt from the South/Southwest, varying between South/Southeast and West/Southwest
Temperature 4°C
Humidity 87%
Pressure 1003 hPa
Visibility 10 km or more
no clouds below 1500 m and no cumulonimbus

METAR: EYKA 092050Z 20006KT 150V250 CAVOK 04/02 Q1003 R08/190095

Time: 23:09 (21:09 UTC)

Forecast

The report was made 4 hours and 6 minutes ago, at 17:03 UTC
Forecast valid from 09 at 18 UTC to 10 at 18 UTC
Wind 10 kt from the South/Southwest
Visibility: 9000 m
Scattered clouds at a height of 1500 ft
Temporary
from 09 at 22 UTC to 10 at 06 UTC
Broken clouds at a height of 500 ft
Becoming
from 10 at 06 UTC to 10 at 08 UTC
Scattered clouds at a height of 1200 ft, Cumulonimbus.
Broken clouds at a height of 1800 ft

TAF: EYKA 091703Z 0918/1018 21010KT 9000 SCT015 TEMPO 0922/1006 BKN005 BECMG 1006/1008 SCT012CB BKN018

Weather observations and forecasts of more than 4000 airports (METAR and TAF reports).

The available stations are represented by yellow and red dots on the map.

Hover mouse over dot to see the name of the station.

Then click to see weather observations and forecasts.

To change the map : click on the green buttons with a black cross to zoom in, on the green button with a dash to zoom out, or on the green arrows for adjacent maps.


METAR-TAF: